createdAt,value
2019-06-20T00:01:33.595Z,99635.97
2019-06-20T00:04:00.824Z,99646.50
2019-06-20T00:06:27.959Z,99674.03
2019-06-20T00:08:55.293Z,99698.94
2019-06-20T00:11:22.352Z,99717.98
2019-06-20T00:13:49.427Z,99733.94
2019-06-20T00:16:16.494Z,99747.05
2019-06-20T00:18:43.496Z,99743.97
2019-06-20T00:21:10.574Z,99726.20
2019-06-20T00:23:37.657Z,99714.53
2019-06-20T00:26:04.771Z,99701.05
2019-06-20T00:28:31.871Z,99704.16
2019-06-20T00:30:59.329Z,99709.30
2019-06-20T00:33:26.403Z,99704.70
2019-06-20T00:35:53.554Z,99710.28
2019-06-20T00:38:20.721Z,99727.31
2019-06-20T00:40:47.750Z,99747.17
2019-06-20T00:43:17.980Z,99736.12
2019-06-20T00:45:43.759Z,99724.58
2019-06-20T00:48:11.993Z,99693.39
2019-06-20T00:50:39.114Z,99684.65
2019-06-20T00:53:08.650Z,99708.31
2019-06-20T00:55:36.886Z,99723.12
2019-06-20T00:58:03.983Z,99676.91
2019-06-20T01:00:31.033Z,99595.82
2019-06-20T01:02:59.676Z,99510.45
2019-06-20T01:05:26.752Z,99538.64
2019-06-20T01:07:54.451Z,99614.59
2019-06-20T01:10:37.668Z,99619.77
2019-06-20T01:13:05.290Z,99600.81
2019-06-20T01:15:34.617Z,99586.22
2019-06-20T01:18:01.983Z,99579.63
2019-06-20T01:20:29.053Z,99584.94
2019-06-20T01:22:56.120Z,99583.78
2019-06-20T01:25:37.108Z,99590.73
2019-06-20T01:28:05.784Z,99596.72
2019-06-20T01:30:32.825Z,99612.67
2019-06-20T01:32:59.840Z,99620.54
2019-06-20T01:35:26.890Z,99632.16
2019-06-20T01:37:53.925Z,99652.58
2019-06-20T01:40:21.018Z,99658.03
2019-06-20T01:42:48.053Z,99675.31
2019-06-20T01:45:15.342Z,99695.94
2019-06-20T01:47:43.720Z,99702.13
2019-06-20T01:50:11.818Z,99698.73
2019-06-20T01:52:38.893Z,99697.88
2019-06-20T01:55:06.392Z,99699.65
2019-06-20T01:57:34.544Z,99703.28
2019-06-20T02:00:01.801Z,99705.19
2019-06-20T02:02:33.548Z,99706.30
2019-06-20T02:05:00.632Z,99701.25
2019-06-20T02:07:28.910Z,99707.08
2019-06-20T02:09:56.274Z,99708.53
2019-06-20T02:12:24.667Z,99710.16
2019-06-20T02:14:51.800Z,99714.75
2019-06-20T02:17:20.250Z,99713.47
2019-06-20T02:19:47.311Z,99721.67
2019-06-20T02:22:14.314Z,99720.15
2019-06-20T02:24:42.563Z,99712.95
2019-06-20T02:27:09.600Z,99707.33
2019-06-20T02:29:36.682Z,99706.98
2019-06-20T02:32:03.699Z,99713.69
2019-06-20T02:34:30.821Z,99709.19
2019-06-20T02:36:57.848Z,99713.58
2019-06-20T02:39:25.141Z,99712.88
2019-06-20T02:41:52.299Z,99711.31
2019-06-20T02:44:29.928Z,99718.14
2019-06-20T02:46:48.314Z,99718.97
2019-06-20T02:49:15.371Z,99713.27
2019-06-20T02:51:42.808Z,99714.59
2019-06-20T02:54:09.878Z,99715.03
2019-06-20T02:56:36.908Z,99728.55
2019-06-20T02:59:03.960Z,99732.34
2019-06-20T03:01:31.243Z,99739.47
2019-06-20T03:03:58.288Z,99742.45
2019-06-20T03:06:27.266Z,99748.36
2019-06-20T03:08:54.339Z,99747.09
2019-06-20T03:11:21.420Z,99750.36
2019-06-20T03:13:48.643Z,99747.20
2019-06-20T03:16:16.615Z,99756.30
2019-06-20T03:18:43.740Z,99750.32
2019-06-20T03:21:10.742Z,99755.20
2019-06-20T03:23:37.775Z,99765.93
2019-06-20T03:26:04.832Z,99769.70
2019-06-20T03:28:31.850Z,99768.59
2019-06-20T03:31:00.439Z,99768.33
2019-06-20T03:33:27.495Z,99772.92
2019-06-20T03:35:54.570Z,99778.88
2019-06-20T03:38:21.590Z,99786.97
2019-06-20T03:40:48.941Z,99800.19
2019-06-20T03:43:16.023Z,99801.89
2019-06-20T03:45:43.039Z,99798.22
2019-06-20T03:48:10.412Z,99795.03
2019-06-20T03:50:37.462Z,99807.70
2019-06-20T03:53:05.588Z,99805.78
2019-06-20T03:55:32.950Z,99804.17
2019-06-20T03:58:00.825Z,99809.09
2019-06-20T04:00:31.858Z,99809.73
2019-06-20T04:02:58.950Z,99810.52
2019-06-20T04:05:26.033Z,99812.23
2019-06-20T04:07:53.096Z,99808.16
2019-06-20T04:10:20.152Z,99812.14
2019-06-20T04:12:47.203Z,99811.13
2019-06-20T04:15:19.005Z,99813.80
2019-06-20T04:17:43.842Z,99809.95
2019-06-20T04:20:11.232Z,99808.33
2019-06-20T04:22:38.326Z,99811.09
2019-06-20T04:25:05.953Z,99811.48
2019-06-20T04:27:32.967Z,99807.33
2019-06-20T04:30:00.221Z,99816.62
2019-06-20T04:32:27.328Z,99814.41
2019-06-20T04:34:54.402Z,99816.91
2019-06-20T04:37:21.477Z,99816.61
2019-06-20T04:39:48.590Z,99815.05
2019-06-20T04:42:18.675Z,99817.45
2019-06-20T04:44:44.519Z,99823.69
2019-06-20T04:47:12.098Z,99821.41
2019-06-20T04:49:39.131Z,99825.91
2019-06-20T04:52:06.258Z,99824.02
2019-06-20T04:54:35.081Z,99818.69
2019-06-20T04:57:02.616Z,99823.48
2019-06-20T04:59:33.552Z,99824.98
2019-06-20T05:02:01.270Z,99821.01
2019-06-20T05:04:28.479Z,99826.06
2019-06-20T05:07:03.064Z,99831.70
2019-06-20T05:09:30.144Z,99834.62
2019-06-20T05:11:57.236Z,99839.30
2019-06-20T05:14:24.387Z,99840.01
2019-06-20T05:16:51.483Z,99838.20
2019-06-20T05:19:18.511Z,99836.62
2019-06-20T05:21:46.888Z,99841.25
2019-06-20T05:24:13.994Z,99828.33
2019-06-20T05:26:41.072Z,99831.80
2019-06-20T05:29:08.116Z,99823.94
2019-06-20T05:31:40.231Z,99826.42
2019-06-20T05:34:07.283Z,99822.17
2019-06-20T05:36:37.242Z,99829.09
2019-06-20T05:39:05.356Z,99838.53
2019-06-20T05:41:32.470Z,99837.02
2019-06-20T05:44:00.736Z,99837.72
2019-06-20T05:46:30.443Z,99841.14
2019-06-20T05:48:57.471Z,99844.39
2019-06-20T05:51:25.364Z,99846.16
2019-06-20T05:53:52.377Z,99845.00
2019-06-20T05:56:19.461Z,99851.34
2019-06-20T05:58:46.573Z,99847.78
2019-06-20T06:01:15.125Z,99853.11
2019-06-20T06:03:42.162Z,99848.12
2019-06-20T06:06:09.423Z,99854.14
2019-06-20T06:08:38.367Z,99851.41
2019-06-20T06:11:05.433Z,99847.28
2019-06-20T06:13:32.532Z,99849.98
2019-06-20T06:16:07.727Z,99855.11
2019-06-20T06:18:40.968Z,99859.13
2019-06-20T06:21:08.666Z,99855.53
2019-06-20T06:23:39.383Z,99861.42
2019-06-20T06:26:06.435Z,99858.59
2019-06-20T06:28:33.883Z,99857.98
2019-06-20T06:31:05.470Z,99859.27
2019-06-20T06:33:37.071Z,99861.14
2019-06-20T06:36:10.804Z,99860.88
2019-06-20T06:38:45.377Z,99864.42
2019-06-20T06:41:20.260Z,99860.88
2019-06-20T06:43:56.422Z,99858.53
2019-06-20T06:46:25.252Z,99863.02
2019-06-20T06:49:01.140Z,99857.56
2019-06-20T06:51:32.639Z,99860.05
2019-06-20T06:54:01.933Z,99863.12
2019-06-20T06:56:31.155Z,99852.70
2019-06-20T06:59:02.880Z,99857.00
2019-06-20T07:01:35.485Z,99860.45
2019-06-20T07:04:02.555Z,99852.89
2019-06-20T07:06:29.742Z,99863.25
2019-06-20T07:09:08.877Z,99866.51
2019-06-20T07:11:36.010Z,99865.91
2019-06-20T07:14:03.419Z,99866.06
2019-06-20T07:16:31.160Z,99865.32
2019-06-20T07:18:59.822Z,99863.16
2019-06-20T07:21:26.934Z,99868.00
2019-06-20T07:23:54.009Z,99869.98
2019-06-20T07:26:23.533Z,99871.06
2019-06-20T07:28:57.675Z,99875.48
2019-06-20T07:31:26.069Z,99878.19
2019-06-20T07:33:53.193Z,99875.91
2019-06-20T07:36:20.697Z,99872.52
2019-06-20T07:38:47.898Z,99869.00
2019-06-20T07:41:17.382Z,99875.00
2019-06-20T07:43:44.592Z,99874.09
2019-06-20T07:46:19.168Z,99871.12
2019-06-20T07:48:48.549Z,99878.29
2019-06-20T07:51:15.882Z,99880.69
2019-06-20T07:53:43.283Z,99875.58
2019-06-20T07:56:14.007Z,99875.41
2019-06-20T07:58:41.055Z,99876.34
2019-06-20T08:01:09.961Z,99883.29
2019-06-20T08:03:39.533Z,99880.84
2019-06-20T08:06:08.746Z,99880.23
2019-06-20T08:08:35.851Z,99887.58
2019-06-20T08:11:09.765Z,99889.96
2019-06-20T08:13:38.113Z,99883.48
2019-06-20T08:16:05.248Z,99893.25
2019-06-20T08:18:33.649Z,99891.08
2019-06-20T08:21:02.575Z,99894.73
2019-06-20T08:23:29.870Z,99885.25
2019-06-20T08:25:57.557Z,99889.94
2019-06-20T08:28:26.933Z,99888.70
2019-06-20T08:30:53.991Z,99887.69
2019-06-20T08:33:21.285Z,99889.80
2019-06-20T08:35:50.641Z,99889.16
2019-06-20T08:38:18.000Z,99888.23
2019-06-20T08:40:45.087Z,99887.27
2019-06-20T08:43:14.335Z,99889.94
2019-06-20T08:45:43.438Z,99880.17
2019-06-20T08:48:10.789Z,99883.27
2019-06-20T08:50:39.826Z,99871.22
2019-06-20T08:53:09.775Z,99879.02
2019-06-20T08:55:38.594Z,99876.88
2019-06-20T08:58:13.850Z,99881.95
2019-06-20T09:00:57.637Z,99882.81
2019-06-20T09:03:29.881Z,99870.70
2019-06-20T09:06:00.095Z,99873.47
2019-06-20T09:09:02.417Z,99879.86
2019-06-20T09:11:50.363Z,99875.53
2019-06-20T09:14:32.693Z,99877.09
2019-06-20T09:17:02.939Z,99881.25
2019-06-20T09:19:31.146Z,99879.72
2019-06-20T09:21:58.245Z,99879.46
2019-06-20T09:24:26.261Z,99875.83
2019-06-20T09:26:55.386Z,99874.38
2019-06-20T09:29:23.181Z,99880.42
2019-06-20T09:31:52.516Z,99877.72
2019-06-20T09:34:20.650Z,99879.14
2019-06-20T09:36:51.980Z,99879.20
2019-06-20T09:39:19.457Z,99877.94
2019-06-20T09:41:51.633Z,99877.36
2019-06-20T09:44:21.407Z,99878.59
2019-06-20T09:46:49.805Z,99880.43
2019-06-20T09:49:33.261Z,99872.34
2019-06-20T09:52:01.511Z,99873.16
2019-06-20T09:54:32.464Z,99880.43
2019-06-20T09:57:00.778Z,99871.56
2019-06-20T09:59:28.154Z,99874.06
2019-06-20T10:01:58.756Z,99880.51
2019-06-20T10:04:25.984Z,99880.52
2019-06-20T10:06:56.643Z,99877.57
2019-06-20T10:09:54.398Z,99876.08
2019-06-20T10:12:37.681Z,99873.95
2019-06-20T10:15:12.258Z,99881.91
2019-06-20T10:17:39.483Z,99883.83
2019-06-20T10:20:06.758Z,99882.91
2019-06-20T10:22:33.904Z,99879.20
2019-06-20T10:25:01.131Z,99879.30
2019-06-20T10:27:30.398Z,99878.58
2019-06-20T10:30:13.481Z,99871.59
2019-06-20T10:32:31.285Z,99880.66
2019-06-20T10:34:58.602Z,99884.14
2019-06-20T10:37:25.812Z,99874.17
2019-06-20T10:39:52.968Z,99872.80
2019-06-20T10:42:23.922Z,99873.86
2019-06-20T10:44:52.191Z,99875.94
2019-06-20T10:47:32.440Z,99872.34
2019-06-20T10:49:50.468Z,99866.70
2019-06-20T10:52:17.826Z,99870.70
2019-06-20T10:54:44.935Z,99865.19
2019-06-20T10:57:17.760Z,99872.13
2019-06-20T10:59:46.439Z,99876.47
2019-06-20T11:02:13.796Z,99873.13
2019-06-20T11:04:42.287Z,99873.13
2019-06-20T11:07:09.931Z,99884.55
2019-06-20T11:09:36.990Z,99890.16
2019-06-20T11:12:04.086Z,99897.73
2019-06-20T11:14:34.185Z,99905.70
2019-06-20T11:17:03.575Z,99907.15
2019-06-20T11:19:32.447Z,99897.98
2019-06-20T11:22:01.714Z,99896.86
2019-06-20T11:24:29.627Z,99897.98
2019-06-20T11:26:57.296Z,99896.41
2019-06-20T11:29:24.848Z,99893.22
2019-06-20T11:31:52.192Z,99886.39
2019-06-20T11:34:19.735Z,99886.06
2019-06-20T11:36:46.868Z,99885.34
2019-06-20T11:39:14.172Z,99871.91
2019-06-20T11:41:43.662Z,99868.69
2019-06-20T11:44:10.751Z,99862.19
2019-06-20T11:46:38.596Z,99868.36
2019-06-20T11:49:05.931Z,99871.53
2019-06-20T11:51:34.369Z,99875.61
2019-06-20T11:54:02.299Z,99876.80
2019-06-20T11:56:29.337Z,99873.35
2019-06-20T11:58:56.558Z,99872.69
2019-06-20T12:01:32.525Z,99874.44
2019-06-20T12:03:54.337Z,99868.60
2019-06-20T12:06:21.769Z,99857.05
2019-06-20T12:08:49.380Z,99858.23
2019-06-20T12:11:20.547Z,99851.57
2019-06-20T12:13:48.547Z,99842.17
2019-06-20T12:16:16.238Z,99838.65
2019-06-20T12:18:43.519Z,99849.88
2019-06-20T12:21:10.743Z,99844.59
2019-06-20T12:23:39.534Z,99849.84
2019-06-20T12:26:07.652Z,99838.41
2019-06-20T12:28:34.783Z,99834.67
2019-06-20T12:31:18.210Z,99833.17
2019-06-20T12:33:34.833Z,99838.76
2019-06-20T12:36:02.523Z,99838.79
2019-06-20T12:38:30.187Z,99839.37
2019-06-20T12:40:57.338Z,99833.02
2019-06-20T12:43:24.558Z,99828.70
2019-06-20T12:45:51.785Z,99828.03
2019-06-20T12:48:20.870Z,99842.17
2019-06-20T12:50:50.625Z,99845.91
2019-06-20T12:53:17.702Z,99846.47
2019-06-20T12:55:45.736Z,99848.57
2019-06-20T12:58:17.548Z,99846.41
2019-06-20T13:00:46.665Z,99833.59
2019-06-20T13:03:13.940Z,99826.34
2019-06-20T13:05:43.302Z,99822.28
2019-06-20T13:08:13.545Z,99825.53
2019-06-20T13:10:44.260Z,99826.56
2019-06-20T13:13:12.512Z,99820.09
2019-06-20T13:15:40.655Z,99812.22
2019-06-20T13:18:08.217Z,99810.95
2019-06-20T13:20:39.425Z,99809.12
2019-06-20T13:23:08.328Z,99804.81
2019-06-20T13:25:35.493Z,99804.11
2019-06-20T13:28:03.663Z,99809.64
2019-06-20T13:30:52.210Z,99806.94
2019-06-20T13:33:19.426Z,99803.50
2019-06-20T13:35:46.633Z,99803.23
2019-06-20T13:38:13.740Z,99806.82
2019-06-20T13:40:41.451Z,99801.58
2019-06-20T13:43:08.674Z,99799.52
2019-06-20T13:45:36.694Z,99800.26
2019-06-20T13:48:08.192Z,99800.51
2019-06-20T13:50:35.300Z,99804.28
2019-06-20T13:53:02.385Z,99788.74
2019-06-20T13:55:32.227Z,99781.89
2019-06-20T13:58:00.118Z,99786.30
2019-06-20T14:00:27.797Z,99781.66
2019-06-20T14:03:02.458Z,99773.61
2019-06-20T14:05:31.607Z,99777.93
2019-06-20T14:07:58.788Z,99786.70
2019-06-20T14:10:28.062Z,99792.55
2019-06-20T14:12:59.309Z,99787.80
2019-06-20T14:15:26.728Z,99778.27
2019-06-20T14:17:53.986Z,99790.19
2019-06-20T14:20:21.116Z,99787.65
2019-06-20T14:22:49.490Z,99790.72
2019-06-20T14:25:18.196Z,99786.34
2019-06-20T14:27:45.976Z,99783.36
2019-06-20T14:30:15.324Z,99800.98
2019-06-20T14:32:44.820Z,99804.61
2019-06-20T14:35:18.121Z,99795.04
2019-06-20T14:37:47.833Z,99795.58
2019-06-20T14:40:18.053Z,99800.23
2019-06-20T14:42:46.010Z,99814.27
2019-06-20T14:45:14.540Z,99818.94
2019-06-20T14:47:41.946Z,99813.03
2019-06-20T14:50:10.344Z,99808.44
2019-06-20T14:52:39.772Z,99812.55
2019-06-20T14:55:10.095Z,99819.35
2019-06-20T14:57:40.478Z,99820.50
2019-06-20T15:00:11.818Z,99813.98
2019-06-20T15:02:39.230Z,99809.97
2019-06-20T15:05:13.747Z,99799.67
2019-06-20T15:07:40.844Z,99794.54
2019-06-20T15:10:13.185Z,99801.77
2019-06-20T15:12:47.867Z,99800.61
2019-06-20T15:15:48.328Z,99805.27
2019-06-20T15:18:23.219Z,99816.80
2019-06-20T15:20:52.819Z,99831.19
2019-06-20T15:23:20.700Z,99833.94
2019-06-20T15:25:49.106Z,99846.61
2019-06-20T15:28:18.293Z,99851.49
2019-06-20T15:30:47.094Z,99853.98
2019-06-20T15:33:14.543Z,99852.88
2019-06-20T15:35:41.602Z,99844.20
2019-06-20T15:38:09.651Z,99840.34
2019-06-20T15:40:43.746Z,99838.66
2019-06-20T15:43:15.215Z,99849.24
2019-06-20T15:45:43.561Z,99852.44
2019-06-20T15:48:12.974Z,99856.25
2019-06-20T15:50:41.349Z,99858.72
2019-06-20T15:53:12.436Z,99858.76
2019-06-20T15:55:44.372Z,99861.77
2019-06-20T15:58:16.141Z,99852.12
2019-06-20T16:00:43.334Z,99851.27
2019-06-20T16:03:14.361Z,99850.95
2019-06-20T16:05:44.143Z,99863.68
2019-06-20T16:08:15.780Z,99855.71
2019-06-20T16:10:46.509Z,99850.49
2019-06-20T16:13:13.602Z,99850.57
2019-06-20T16:15:45.089Z,99852.77
2019-06-20T16:18:17.022Z,99853.95
2019-06-20T16:20:51.911Z,99858.23
2019-06-20T16:23:22.257Z,99864.42
2019-06-20T16:25:49.413Z,99870.83
2019-06-20T16:28:16.447Z,99874.98
2019-06-20T16:30:43.571Z,99878.59
2019-06-20T16:33:24.052Z,99869.49
2019-06-20T16:35:42.584Z,99874.97
2019-06-20T16:38:09.831Z,99872.78
2019-06-20T16:40:43.397Z,99873.23
2019-06-20T16:43:14.904Z,99877.59
2019-06-20T16:45:42.428Z,99887.27
2019-06-20T16:48:10.171Z,99896.48
2019-06-20T16:50:37.477Z,99897.30
2019-06-20T16:53:06.011Z,99886.81
2019-06-20T16:55:39.441Z,99876.27
2019-06-20T16:58:08.666Z,99873.40
2019-06-20T17:00:38.984Z,99870.02
2019-06-20T17:03:06.603Z,99863.76
2019-06-20T17:05:34.211Z,99870.35
2019-06-20T17:08:05.653Z,99881.91
2019-06-20T17:10:34.628Z,99883.22
2019-06-20T17:13:03.263Z,99885.46
2019-06-20T17:15:30.433Z,99897.13
2019-06-20T17:18:00.676Z,99891.63
2019-06-20T17:20:31.776Z,99885.27
2019-06-20T17:23:00.991Z,99894.00
2019-06-20T17:25:31.202Z,99903.29
2019-06-20T17:28:04.642Z,99923.05
2019-06-20T17:30:31.858Z,99926.16
2019-06-20T17:32:58.983Z,99917.41
2019-06-20T17:35:27.514Z,99913.95
2019-06-20T17:37:54.947Z,99905.29
2019-06-20T17:40:24.167Z,99894.98
2019-06-20T17:42:52.660Z,99899.70
2019-06-20T17:45:21.708Z,99906.31
2019-06-20T17:47:49.257Z,99905.45
2019-06-20T17:50:16.824Z,99909.86
2019-06-20T17:52:44.090Z,99911.81
2019-06-20T17:55:12.117Z,99916.27
2019-06-20T17:57:39.385Z,99927.36
2019-06-20T18:00:10.050Z,99938.64
2019-06-20T18:02:41.274Z,99941.17
2019-06-20T18:05:16.554Z,99941.39
2019-06-20T18:07:46.938Z,99948.91
2019-06-20T18:10:17.280Z,99958.09
2019-06-20T18:12:48.709Z,99970.54
2019-06-20T18:15:17.226Z,99971.20
2019-06-20T18:17:48.699Z,99979.77
2019-06-20T18:20:19.330Z,99971.52
2019-06-20T18:22:50.819Z,99974.17
2019-06-20T18:25:20.556Z,99978.05
2019-06-20T18:27:47.644Z,99988.66
2019-06-20T18:30:18.076Z,99990.17
2019-06-20T18:32:45.508Z,99999.29
2019-06-20T18:35:14.446Z,99995.77
2019-06-20T18:37:41.628Z,100000.98
2019-06-20T18:40:10.866Z,100007.75
2019-06-20T18:42:38.010Z,100011.73
2019-06-20T18:45:05.770Z,100008.31
2019-06-20T18:47:33.084Z,100012.64
2019-06-20T18:50:00.219Z,100011.65
2019-06-20T18:52:27.390Z,100010.11
2019-06-20T18:54:56.841Z,100019.00
2019-06-20T18:57:25.077Z,100012.19
2019-06-20T18:59:52.222Z,100011.30
2019-06-20T19:02:23.162Z,100010.31
2019-06-20T19:05:09.017Z,100014.25
2019-06-20T19:07:37.939Z,100019.27
2019-06-20T19:10:05.243Z,100023.48
2019-06-20T19:12:37.211Z,100025.53
2019-06-20T19:15:12.529Z,100030.21
2019-06-20T19:17:43.056Z,100034.86
2019-06-20T19:20:12.080Z,100042.94
2019-06-20T19:22:40.443Z,100043.52
2019-06-20T19:25:08.374Z,100058.97
2019-06-20T19:27:45.453Z,100054.00
2019-06-20T19:30:04.982Z,100057.61
2019-06-20T19:32:33.238Z,100061.23
2019-06-20T19:35:02.836Z,100071.81
2019-06-20T19:37:31.395Z,100077.67
2019-06-20T19:40:02.679Z,100072.56
2019-06-20T19:42:32.193Z,100078.71
2019-06-20T19:45:07.217Z,100081.56
2019-06-20T19:47:37.352Z,100094.78
2019-06-20T19:50:10.808Z,100090.74
2019-06-20T19:52:39.830Z,100098.26
2019-06-20T19:55:07.762Z,100101.08
2019-06-20T19:57:41.237Z,100112.59
2019-06-20T20:00:12.301Z,100117.14
2019-06-20T20:02:49.543Z,100117.14
2019-06-20T20:05:19.628Z,100129.58
2019-06-20T20:07:49.038Z,100129.52
2019-06-20T20:10:37.758Z,100135.81
2019-06-20T20:13:05.278Z,100138.55
2019-06-20T20:15:33.402Z,100146.27
2019-06-20T20:18:05.216Z,100146.66
2019-06-20T20:20:41.779Z,100143.03
2019-06-20T20:23:15.462Z,100143.48
2019-06-20T20:25:47.853Z,100139.38
2019-06-20T20:28:15.215Z,100128.87
2019-06-20T20:30:45.229Z,100139.88
2019-06-20T20:33:16.178Z,100133.08
2019-06-20T20:35:46.418Z,100139.13
2019-06-20T20:38:18.864Z,100137.83
2019-06-20T20:40:46.208Z,100141.87
2019-06-20T20:43:13.611Z,100138.27
2019-06-20T20:45:46.386Z,100141.80
2019-06-20T20:48:16.928Z,100140.23
2019-06-20T20:50:44.999Z,100140.88
2019-06-20T20:53:12.591Z,100141.36
2019-06-20T20:55:39.852Z,100142.55
2019-06-20T20:58:06.995Z,100141.13
2019-06-20T21:00:42.290Z,100147.45
2019-06-20T21:03:09.373Z,100147.24
2019-06-20T21:05:51.398Z,100150.91
2019-06-20T21:08:14.944Z,100153.27
2019-06-20T21:10:44.386Z,100156.50
2019-06-20T21:13:17.413Z,100149.73
2019-06-20T21:15:44.470Z,100151.75
2019-06-20T21:18:11.574Z,100158.75
2019-06-20T21:20:38.664Z,100159.59
2019-06-20T21:23:07.464Z,100161.38
2019-06-20T21:25:37.372Z,100165.86
2019-06-20T21:28:08.938Z,100168.77
2019-06-20T21:30:36.209Z,100167.10
2019-06-20T21:33:05.086Z,100170.41
2019-06-20T21:35:32.191Z,100170.39
2019-06-20T21:37:59.250Z,100167.47
2019-06-20T21:40:26.311Z,100172.64
2019-06-20T21:42:53.608Z,100172.06
2019-06-20T21:45:23.346Z,100174.29
2019-06-20T21:47:50.434Z,100177.38
2019-06-20T21:50:19.226Z,100185.27
2019-06-20T21:52:46.737Z,100183.30
2019-06-20T21:55:15.617Z,100195.88
2019-06-20T21:57:43.663Z,100200.73
2019-06-20T22:00:14.865Z,100201.91
2019-06-20T22:02:46.386Z,100201.97
2019-06-20T22:05:24.651Z,100208.67
2019-06-20T22:07:51.789Z,100209.60
2019-06-20T22:10:20.951Z,100208.29
2019-06-20T22:12:48.045Z,100200.70
2019-06-20T22:15:16.146Z,100202.19
2019-06-20T22:17:45.588Z,100192.27
2019-06-20T22:20:13.914Z,100201.52
2019-06-20T22:22:41.101Z,100194.09
2019-06-20T22:25:10.423Z,100201.47
2019-06-20T22:27:39.379Z,100203.76
2019-06-20T22:30:08.369Z,100202.54
2019-06-20T22:32:35.473Z,100196.32
2019-06-20T22:35:02.879Z,100204.30
2019-06-20T22:37:30.032Z,100212.20
2019-06-20T22:39:57.320Z,100225.20
2019-06-20T22:42:25.543Z,100226.14
2019-06-20T22:44:52.626Z,100227.42
2019-06-20T22:47:19.810Z,100216.42
2019-06-20T22:49:46.942Z,100217.03
2019-06-20T22:52:14.010Z,100230.52
2019-06-20T22:54:42.291Z,100224.91
2019-06-20T22:57:09.548Z,100228.22
2019-06-20T22:59:36.965Z,100235.58
2019-06-20T23:02:04.026Z,100227.44
2019-06-20T23:04:31.093Z,100223.73
2019-06-20T23:06:58.110Z,100227.86
2019-06-20T23:09:27.375Z,100227.67
2019-06-20T23:11:54.309Z,100223.30
2019-06-20T23:14:23.271Z,100224.38
2019-06-20T23:16:50.327Z,100230.37
2019-06-20T23:19:17.853Z,100229.69
2019-06-20T23:21:45.575Z,100232.27
2019-06-20T23:24:12.642Z,100237.69
2019-06-20T23:26:39.732Z,100239.67
2019-06-20T23:29:22.082Z,100241.94
2019-06-20T23:31:49.727Z,100242.98
2019-06-20T23:34:16.791Z,100238.19
2019-06-20T23:36:43.826Z,100239.63
2019-06-20T23:39:10.943Z,100247.17
2019-06-20T23:41:38.015Z,100242.80
2019-06-20T23:44:06.536Z,100241.02
2019-06-20T23:46:33.636Z,100246.63
2019-06-20T23:49:00.669Z,100254.52
2019-06-20T23:51:29.596Z,100247.05
2019-06-20T23:53:57.888Z,100251.19
2019-06-20T23:56:24.972Z,100247.12
2019-06-20T23:58:53.727Z,100246.63
